createdAt,value
2019-04-07T00:01:10.679Z,10.30
2019-04-07T00:03:40.481Z,10.10
2019-04-07T00:06:09.828Z,10.00
2019-04-07T00:08:39.058Z,9.90
2019-04-07T00:11:09.404Z,9.90
2019-04-07T00:13:38.715Z,9.90
2019-04-07T00:16:10.624Z,9.90
2019-04-07T00:18:40.387Z,10.00
2019-04-07T00:21:11.286Z,10.00
2019-04-07T00:23:40.728Z,10.20
2019-04-07T00:26:10.067Z,10.30
2019-04-07T00:28:39.556Z,10.30
2019-04-07T00:31:08.896Z,10.40
2019-04-07T00:33:38.234Z,10.50
2019-04-07T00:36:07.552Z,10.40
2019-04-07T00:38:38.413Z,10.30
2019-04-07T00:41:07.919Z,10.20
2019-04-07T00:43:37.361Z,10.00
2019-04-07T00:46:06.724Z,9.90
2019-04-07T00:48:36.443Z,9.60
2019-04-07T00:51:06.578Z,9.50
2019-04-07T00:53:36.552Z,9.30
2019-04-07T00:56:05.983Z,9.20
2019-04-07T00:58:35.268Z,9.10
2019-04-07T01:01:05.378Z,9.00
2019-04-07T01:03:34.959Z,8.90
2019-04-07T01:06:04.468Z,9.00
2019-04-07T01:08:34.005Z,8.90
2019-04-07T01:11:03.514Z,8.80
2019-04-07T01:13:33.985Z,8.70
2019-04-07T01:16:03.882Z,8.80
2019-04-07T01:18:33.907Z,8.60
2019-04-07T01:21:03.728Z,8.60
2019-04-07T01:23:33.659Z,8.50
2019-04-07T01:26:03.229Z,8.50
2019-04-07T01:28:32.837Z,8.40
2019-04-07T01:31:02.375Z,8.40
2019-04-07T01:33:32.296Z,8.50
2019-04-07T01:36:02.044Z,8.40
2019-04-07T01:38:31.323Z,8.40
2019-04-07T01:41:22.856Z,8.30
2019-04-07T01:44:20.248Z,8.40
2019-04-07T01:47:07.894Z,8.40
2019-04-07T01:50:14.369Z,8.40
2019-04-07T01:53:05.869Z,8.50
2019-04-07T01:55:57.569Z,8.50
2019-04-07T01:58:38.355Z,8.60
2019-04-07T02:01:15.923Z,8.60
2019-04-07T02:04:06.944Z,8.70
2019-04-07T02:07:03.060Z,8.80
2019-04-07T02:09:50.328Z,8.80
2019-04-07T02:12:49.044Z,9.00
2019-04-07T02:15:37.179Z,9.10
2019-04-07T02:18:28.880Z,9.20
2019-04-07T02:21:07.273Z,9.20
2019-04-07T02:23:55.915Z,9.30
2019-04-07T02:26:37.825Z,9.30
2019-04-07T02:29:24.721Z,9.40
2019-04-07T02:32:00.258Z,9.40
2019-04-07T02:34:54.413Z,9.40
2019-04-07T02:37:41.276Z,9.40
2019-04-07T02:40:33.036Z,9.40
2019-04-07T02:43:27.627Z,9.40
2019-04-07T02:46:25.507Z,9.30
2019-04-07T02:49:08.445Z,9.20
2019-04-07T02:51:45.591Z,9.20
2019-04-07T02:54:33.267Z,9.20
2019-04-07T02:57:22.081Z,9.20
2019-04-07T03:00:16.355Z,9.20
2019-04-07T03:03:07.562Z,9.00
2019-04-07T03:06:07.722Z,9.00
2019-04-07T03:08:52.541Z,8.90
2019-04-07T03:11:40.408Z,8.90
2019-04-07T03:14:31.715Z,8.80
2019-04-07T03:17:06.653Z,8.60
2019-04-07T03:19:50.471Z,8.40
2019-04-07T03:22:37.324Z,8.20
2019-04-07T03:25:26.872Z,8.10
2019-04-07T03:28:14.062Z,8.00
2019-04-07T03:31:02.167Z,8.00
2019-04-07T03:34:09.748Z,8.00
2019-04-07T03:37:18.334Z,8.10
2019-04-07T03:40:00.803Z,8.00
2019-04-07T03:42:51.197Z,8.10
2019-04-07T03:45:39.412Z,8.10
2019-04-07T03:48:14.197Z,8.10
2019-04-07T03:51:05.419Z,8.20
2019-04-07T03:53:56.939Z,8.20
2019-04-07T03:56:53.903Z,8.30
2019-04-07T03:59:54.215Z,8.40
2019-04-07T04:02:51.496Z,8.40
2019-04-07T04:05:43.432Z,8.50
2019-04-07T04:08:31.433Z,8.50
2019-04-07T04:11:07.903Z,8.60
2019-04-07T04:14:02.622Z,8.70
2019-04-07T04:16:37.574Z,8.70
2019-04-07T04:19:06.969Z,8.70
2019-04-07T04:21:36.502Z,8.70
2019-04-07T04:24:06.088Z,8.50
2019-04-07T04:26:35.824Z,8.50
2019-04-07T04:29:05.789Z,8.40
2019-04-07T04:31:35.894Z,8.30
2019-04-07T04:34:05.491Z,8.30
2019-04-07T04:36:34.915Z,8.30
2019-04-07T04:39:06.634Z,8.20
2019-04-07T04:41:36.354Z,8.20
2019-04-07T04:44:06.605Z,8.10
2019-04-07T04:46:38.667Z,8.20
2019-04-07T04:49:08.051Z,8.20
2019-04-07T04:51:39.554Z,8.20
2019-04-07T04:54:08.371Z,8.20
2019-04-07T04:56:37.693Z,8.30
2019-04-07T04:59:07.443Z,8.30
2019-04-07T05:01:38.126Z,8.30
2019-04-07T05:04:08.160Z,8.20
2019-04-07T05:06:37.903Z,8.30
2019-04-07T05:09:07.112Z,8.30
2019-04-07T05:11:37.056Z,8.30
2019-04-07T05:14:07.104Z,8.50
2019-04-07T05:16:36.595Z,8.60
2019-04-07T05:19:06.651Z,8.70
2019-04-07T05:21:36.204Z,8.60
2019-04-07T05:24:05.731Z,8.60
2019-04-07T05:26:35.022Z,8.50
2019-04-07T05:29:04.743Z,8.50
2019-04-07T05:31:34.649Z,8.30
2019-04-07T05:34:04.080Z,8.20
2019-04-07T05:36:33.676Z,8.20
2019-04-07T05:39:05.343Z,8.20
2019-04-07T05:41:34.976Z,8.20
2019-04-07T05:44:04.623Z,8.20
2019-04-07T05:46:38.550Z,8.10
2019-04-07T05:49:05.361Z,8.10
2019-04-07T05:51:35.095Z,8.00
2019-04-07T05:54:04.579Z,8.10
2019-04-07T05:56:34.003Z,8.10
2019-04-07T05:59:03.408Z,8.10
2019-04-07T06:02:03.075Z,8.20
2019-04-07T06:04:33.806Z,8.20
2019-04-07T06:07:03.591Z,8.30
2019-04-07T06:09:33.770Z,8.20
2019-04-07T06:12:09.077Z,8.40
2019-04-07T06:14:34.096Z,8.50
2019-04-07T06:17:03.322Z,8.60
2019-04-07T06:19:32.700Z,8.70
2019-04-07T06:22:03.453Z,8.70
2019-04-07T06:24:34.334Z,8.80
2019-04-07T06:27:04.381Z,8.90
2019-04-07T06:29:33.635Z,8.90
2019-04-07T06:32:05.137Z,8.90
2019-04-07T06:34:33.994Z,9.00
2019-04-07T06:37:04.493Z,9.10
2019-04-07T06:39:34.035Z,9.10
2019-04-07T06:42:03.553Z,9.10
2019-04-07T06:44:33.440Z,9.10
2019-04-07T06:47:09.046Z,9.10
2019-04-07T06:49:56.395Z,9.20
2019-04-07T06:52:47.790Z,9.20
2019-04-07T06:55:36.248Z,9.10
2019-04-07T06:58:27.851Z,9.10
2019-04-07T07:01:25.413Z,9.10
2019-04-07T07:04:21.134Z,9.20
2019-04-07T07:07:06.513Z,9.20
2019-04-07T07:10:00.675Z,9.20
2019-04-07T07:13:02.319Z,9.20
2019-04-07T07:15:53.985Z,9.20
2019-04-07T07:18:30.592Z,9.30
2019-04-07T07:21:04.078Z,9.30
2019-04-07T07:23:45.275Z,9.30
2019-04-07T07:26:13.458Z,9.30
2019-04-07T07:28:44.613Z,9.30
2019-04-07T07:31:14.303Z,9.30
2019-04-07T07:33:43.960Z,9.40
2019-04-07T07:36:17.319Z,9.50
2019-04-07T07:38:55.423Z,9.60
2019-04-07T07:41:19.147Z,9.60
2019-04-07T07:43:47.088Z,9.70
2019-04-07T07:46:20.403Z,9.70
2019-04-07T07:48:47.522Z,9.70
2019-04-07T07:51:17.060Z,9.70
2019-04-07T07:53:46.375Z,9.80
2019-04-07T07:56:16.025Z,9.90
2019-04-07T07:58:47.207Z,9.90
2019-04-07T08:01:17.769Z,10.00
2019-04-07T08:03:51.709Z,10.10
2019-04-07T08:06:19.416Z,10.10
2019-04-07T08:08:48.872Z,10.10
2019-04-07T08:11:18.720Z,10.10
2019-04-07T08:13:48.566Z,10.20
2019-04-07T08:16:18.564Z,10.30
2019-04-07T08:18:49.965Z,10.30
2019-04-07T08:21:20.207Z,10.40
2019-04-07T08:23:49.991Z,10.50
2019-04-07T08:26:19.448Z,10.70
2019-04-07T08:28:49.322Z,10.60
2019-04-07T08:31:21.479Z,10.80
2019-04-07T08:33:51.493Z,10.90
2019-04-07T08:36:21.179Z,10.90
2019-04-07T08:38:53.830Z,10.90
2019-04-07T08:41:22.285Z,10.80
2019-04-07T08:43:55.340Z,10.90
2019-04-07T08:46:23.105Z,10.90
2019-04-07T08:48:54.678Z,11.00
2019-04-07T08:51:24.956Z,11.20
2019-04-07T08:53:54.836Z,11.20
2019-04-07T08:56:26.468Z,11.20
2019-04-07T08:58:55.080Z,11.30
2019-04-07T09:01:25.194Z,11.30
2019-04-07T09:03:56.063Z,11.40
2019-04-07T09:06:28.429Z,11.50
2019-04-07T09:08:56.498Z,11.50
2019-04-07T09:11:25.766Z,11.60
2019-04-07T09:13:56.000Z,11.60
2019-04-07T09:16:53.843Z,11.80
2019-04-07T09:19:40.272Z,11.80
2019-04-07T09:22:30.679Z,11.90
2019-04-07T09:25:18.181Z,12.00
2019-04-07T09:28:10.031Z,12.00
2019-04-07T09:30:57.376Z,12.10
2019-04-07T09:33:48.078Z,12.30
2019-04-07T09:36:31.492Z,12.40
2019-04-07T09:39:22.464Z,12.50
2019-04-07T09:42:14.808Z,12.50
2019-04-07T09:45:03.407Z,12.50
2019-04-07T09:47:51.848Z,12.60
2019-04-07T09:51:02.335Z,12.70
2019-04-07T09:53:38.218Z,12.70
2019-04-07T09:56:29.948Z,12.80
2019-04-07T09:59:35.350Z,12.70
2019-04-07T10:02:26.166Z,12.80
2019-04-07T10:05:17.950Z,12.90
2019-04-07T10:08:05.482Z,13.00
2019-04-07T10:11:04.137Z,13.00
2019-04-07T10:13:54.154Z,13.20
2019-04-07T10:16:39.596Z,13.10
2019-04-07T10:19:28.220Z,13.10
2019-04-07T10:22:32.059Z,13.20
2019-04-07T10:25:35.734Z,13.20
2019-04-07T10:28:24.520Z,13.30
2019-04-07T10:31:12.733Z,13.40
2019-04-07T10:33:48.200Z,13.50
2019-04-07T10:36:33.887Z,13.40
2019-04-07T10:39:18.688Z,13.60
2019-04-07T10:42:15.155Z,13.60
2019-04-07T10:45:09.620Z,13.50
2019-04-07T10:47:46.019Z,13.80
2019-04-07T10:50:33.633Z,13.80
2019-04-07T10:53:23.527Z,13.90
2019-04-07T10:56:01.114Z,13.90
2019-04-07T10:59:04.587Z,13.90
2019-04-07T11:01:49.131Z,14.10
2019-04-07T11:04:44.982Z,14.20
2019-04-07T11:07:42.386Z,14.30
2019-04-07T11:10:37.350Z,14.30
2019-04-07T11:13:23.900Z,14.20
2019-04-07T11:16:12.763Z,14.40
2019-04-07T11:19:04.543Z,14.20
2019-04-07T11:21:55.819Z,14.30
2019-04-07T11:24:47.165Z,14.40
2019-04-07T11:27:48.477Z,14.50
2019-04-07T11:30:45.615Z,14.60
2019-04-07T11:33:29.400Z,14.70
2019-04-07T11:36:09.398Z,14.80
2019-04-07T11:38:58.539Z,14.50
2019-04-07T11:41:45.977Z,14.80
2019-04-07T11:44:38.295Z,14.90
2019-04-07T11:47:25.761Z,14.90
2019-04-07T11:50:04.966Z,15.00
2019-04-07T11:52:44.800Z,14.80
2019-04-07T11:55:26.112Z,14.70
2019-04-07T11:58:32.267Z,15.00
2019-04-07T12:01:12.888Z,15.10
2019-04-07T12:03:59.832Z,15.40
2019-04-07T12:06:49.819Z,15.50
2019-04-07T12:09:39.493Z,15.40
2019-04-07T12:12:25.519Z,15.60
2019-04-07T12:15:14.799Z,15.50
2019-04-07T12:18:03.739Z,15.70
2019-04-07T12:20:42.459Z,15.80
2019-04-07T12:23:33.828Z,15.40
2019-04-07T12:26:22.423Z,15.40
2019-04-07T12:29:16.789Z,15.60
2019-04-07T12:32:03.952Z,15.00
2019-04-07T12:34:53.540Z,15.50
2019-04-07T12:37:35.114Z,16.00
2019-04-07T12:40:26.634Z,16.50
2019-04-07T12:43:21.786Z,17.10
2019-04-07T12:46:15.529Z,17.30
2019-04-07T12:49:09.051Z,17.50
2019-04-07T12:52:02.047Z,17.70
2019-04-07T12:55:03.445Z,17.80
2019-04-07T12:57:45.876Z,18.00
2019-04-07T13:00:44.699Z,18.10
2019-04-07T13:03:18.157Z,18.20
2019-04-07T13:05:57.559Z,18.50
2019-04-07T13:08:41.436Z,18.40
2019-04-07T13:11:29.552Z,18.40
2019-04-07T13:14:12.615Z,17.80
2019-04-07T13:17:17.020Z,18.20
2019-04-07T13:20:19.003Z,18.00
2019-04-07T13:23:00.326Z,17.70
2019-04-07T13:25:55.025Z,17.60
2019-04-07T13:28:41.873Z,17.40
2019-04-07T13:31:18.110Z,17.40
2019-04-07T13:34:04.460Z,16.40
2019-04-07T13:36:50.995Z,17.20
2019-04-07T13:39:39.613Z,17.40
2019-04-07T13:42:33.662Z,17.30
2019-04-07T13:45:20.319Z,16.70
2019-04-07T13:48:09.007Z,16.40
2019-04-07T13:50:59.552Z,16.50
2019-04-07T13:54:00.857Z,16.40
2019-04-07T13:56:55.892Z,16.70
2019-04-07T13:59:46.794Z,16.60
2019-04-07T14:02:30.297Z,16.20
2019-04-07T14:05:22.288Z,16.30
2019-04-07T14:08:04.105Z,16.30
2019-04-07T14:10:50.828Z,16.30
2019-04-07T14:13:39.766Z,15.90
2019-04-07T14:16:25.780Z,15.90
2019-04-07T14:19:04.566Z,16.00
2019-04-07T14:21:53.437Z,16.20
2019-04-07T14:24:39.476Z,16.30
2019-04-07T14:27:33.795Z,16.30
2019-04-07T14:30:14.044Z,16.20
2019-04-07T14:33:05.105Z,16.10
2019-04-07T14:35:48.894Z,15.80
2019-04-07T14:38:41.223Z,15.80
2019-04-07T14:41:33.266Z,15.30
2019-04-07T14:44:24.726Z,15.10
2019-04-07T14:47:14.024Z,14.80
2019-04-07T14:50:01.929Z,14.60
2019-04-07T14:52:44.809Z,14.30
2019-04-07T14:55:31.158Z,14.10
2019-04-07T14:58:09.742Z,13.90
2019-04-07T15:00:50.845Z,13.90
2019-04-07T15:03:20.277Z,13.90
2019-04-07T15:05:50.617Z,13.80
2019-04-07T15:08:46.243Z,13.80
2019-04-07T15:11:29.852Z,13.60
2019-04-07T15:14:04.070Z,13.60
2019-04-07T15:16:34.008Z,13.50
2019-04-07T15:19:04.288Z,13.60
2019-04-07T15:21:34.617Z,13.60
2019-04-07T15:24:07.175Z,13.60
2019-04-07T15:26:36.891Z,13.60
2019-04-07T15:29:10.464Z,13.40
2019-04-07T15:31:38.615Z,13.30
2019-04-07T15:34:10.748Z,13.20
2019-04-07T15:36:39.698Z,13.20
2019-04-07T15:39:09.930Z,13.10
2019-04-07T15:41:42.518Z,13.00
2019-04-07T15:44:13.208Z,13.00
2019-04-07T15:46:41.536Z,13.00
2019-04-07T15:49:10.886Z,12.90
2019-04-07T15:51:41.598Z,12.80
2019-04-07T15:54:11.109Z,12.70
2019-04-07T15:56:41.280Z,12.60
2019-04-07T15:59:10.578Z,12.60
2019-04-07T16:01:40.387Z,12.60
2019-04-07T16:04:09.909Z,12.50
2019-04-07T16:06:40.826Z,12.50
2019-04-07T16:09:17.709Z,12.40
2019-04-07T16:11:43.469Z,12.40
2019-04-07T16:14:14.554Z,12.40
2019-04-07T16:16:43.870Z,12.30
2019-04-07T16:19:18.932Z,12.30
2019-04-07T16:21:44.356Z,12.20
2019-04-07T16:24:13.686Z,12.10
2019-04-07T16:26:43.290Z,12.10
2019-04-07T16:29:15.549Z,12.00
2019-04-07T16:31:43.727Z,12.00
2019-04-07T16:40:45.168Z,11.90
2019-04-07T16:43:16.756Z,11.70
2019-04-07T16:45:46.273Z,11.70
2019-04-07T16:48:16.501Z,11.60
2019-04-07T16:50:46.399Z,11.50
2019-04-07T16:53:16.994Z,11.50
2019-04-07T16:55:48.928Z,11.40
2019-04-07T16:58:17.838Z,11.30
2019-04-07T17:00:50.691Z,11.30
2019-04-07T17:03:21.749Z,11.20
2019-04-07T17:05:56.406Z,11.10
2019-04-07T17:08:24.729Z,11.00
2019-04-07T17:10:54.602Z,11.00
2019-04-07T17:13:35.608Z,10.90
2019-04-07T17:15:55.287Z,10.80
2019-04-07T17:18:43.675Z,10.80
2019-04-07T17:21:18.355Z,10.70
2019-04-07T17:23:47.806Z,10.70
2019-04-07T17:26:18.025Z,10.60
2019-04-07T17:28:49.527Z,10.60
2019-04-07T17:31:18.774Z,10.50
2019-04-07T17:33:48.929Z,10.50
2019-04-07T17:36:21.039Z,10.40
2019-04-07T17:39:09.293Z,10.30
2019-04-07T17:41:38.099Z,10.30
2019-04-07T17:44:29.665Z,10.10
2019-04-07T17:47:11.622Z,10.10
2019-04-07T17:49:59.412Z,10.00
2019-04-07T17:52:47.068Z,10.00
2019-04-07T17:55:42.935Z,9.90
2019-04-07T17:58:32.068Z,9.80
2019-04-07T18:01:24.689Z,9.70
2019-04-07T18:04:18.822Z,9.60
2019-04-07T18:07:07.868Z,9.50
2019-04-07T18:09:53.299Z,9.30
2019-04-07T18:12:45.589Z,9.30
2019-04-07T18:15:40.657Z,9.10
2019-04-07T18:18:35.624Z,9.00
2019-04-07T18:21:39.768Z,8.90
2019-04-07T18:24:15.445Z,9.00
2019-04-07T18:27:11.860Z,8.80
2019-04-07T18:30:08.503Z,8.70
2019-04-07T18:32:57.618Z,8.60
2019-04-07T18:35:39.634Z,8.60
2019-04-07T18:38:28.638Z,8.40
2019-04-07T18:41:10.675Z,8.30
2019-04-07T18:44:18.159Z,8.30
2019-04-07T18:47:10.085Z,8.20
2019-04-07T18:49:58.180Z,8.00
2019-04-07T18:53:04.880Z,8.00
2019-04-07T18:55:40.728Z,7.80
2019-04-07T18:58:29.420Z,7.80
2019-04-07T19:01:17.015Z,7.90
2019-04-07T19:04:02.460Z,7.80
2019-04-07T19:06:41.163Z,7.70
2019-04-07T19:09:31.298Z,7.80
2019-04-07T19:12:23.172Z,7.80
2019-04-07T19:15:22.837Z,7.80
2019-04-07T19:18:07.845Z,7.80
2019-04-07T19:21:13.841Z,7.80
2019-04-07T19:24:16.464Z,7.80
2019-04-07T19:27:11.847Z,7.70
2019-04-07T19:30:03.747Z,7.60
2019-04-07T19:32:57.831Z,7.60
2019-04-07T19:35:49.758Z,7.50
2019-04-07T19:38:39.090Z,7.50
2019-04-07T19:41:29.391Z,7.50
2019-04-07T19:44:16.650Z,7.40
2019-04-07T19:47:14.099Z,7.40
2019-04-07T19:50:12.401Z,7.30
2019-04-07T19:53:03.876Z,7.20
2019-04-07T19:55:58.439Z,7.10
2019-04-07T19:58:43.618Z,7.00
2019-04-07T20:01:19.321Z,6.90
2019-04-07T20:04:14.199Z,6.90
2019-04-07T20:07:09.198Z,6.80
2019-04-07T20:09:57.457Z,6.80
2019-04-07T20:12:42.897Z,6.70
2019-04-07T20:15:22.120Z,6.70
2019-04-07T20:18:10.519Z,6.60
2019-04-07T20:21:02.937Z,6.60
2019-04-07T20:23:44.223Z,6.50
2019-04-07T20:26:26.257Z,6.50
2019-04-07T20:29:06.403Z,6.40
2019-04-07T20:31:51.976Z,6.40
2019-04-07T20:34:29.678Z,6.30
2019-04-07T20:37:09.364Z,6.30
2019-04-07T20:40:05.233Z,6.20
2019-04-07T20:42:48.417Z,6.20
2019-04-07T20:45:35.423Z,6.10
2019-04-07T20:48:35.912Z,6.10
2019-04-07T20:51:19.852Z,6.00
2019-04-07T20:54:11.247Z,6.10
2019-04-07T20:57:02.989Z,6.00
2019-04-07T20:59:50.088Z,6.00
2019-04-07T21:02:47.232Z,6.00
2019-04-07T21:05:44.383Z,6.00
2019-04-07T21:08:45.484Z,5.90
2019-04-07T21:11:36.439Z,5.90
2019-04-07T21:14:20.834Z,5.90
2019-04-07T21:16:59.391Z,5.80
2019-04-07T21:19:50.804Z,5.70
2019-04-07T21:22:29.851Z,5.70
2019-04-07T21:25:33.892Z,5.60
2019-04-07T21:28:28.804Z,5.50
2019-04-07T21:31:06.565Z,5.50
2019-04-07T21:33:55.263Z,5.40
2019-04-07T21:36:48.433Z,5.30
2019-04-07T21:39:34.303Z,5.40
2019-04-07T21:42:29.307Z,5.30
2019-04-07T21:45:31.617Z,5.20
2019-04-07T21:48:30.386Z,5.20
2019-04-07T21:51:15.364Z,5.10
2019-04-07T21:54:02.319Z,5.10
2019-04-07T21:56:46.283Z,5.00
2019-04-07T21:59:46.684Z,4.90
2019-04-07T22:02:44.327Z,4.80
2019-04-07T22:05:18.237Z,4.80
2019-04-07T22:08:08.039Z,4.70
2019-04-07T22:10:31.976Z,4.80
2019-04-07T22:13:04.096Z,4.80
2019-04-07T22:15:43.270Z,4.80
2019-04-07T22:18:07.524Z,4.80
2019-04-07T22:20:34.932Z,4.80
2019-04-07T22:23:06.259Z,4.80
2019-04-07T22:25:38.351Z,4.80
2019-04-07T22:28:09.656Z,4.80
2019-04-07T22:30:43.020Z,4.80
2019-04-07T22:33:10.723Z,4.80
2019-04-07T22:35:42.481Z,4.80
2019-04-07T22:38:11.439Z,4.80
2019-04-07T22:40:41.621Z,4.70
2019-04-07T22:43:11.328Z,4.60
2019-04-07T22:45:40.736Z,4.50
2019-04-07T22:48:10.156Z,4.40
2019-04-07T22:50:39.814Z,4.30
2019-04-07T22:53:09.399Z,4.20
2019-04-07T22:55:38.724Z,4.20
2019-04-07T22:58:08.051Z,4.10
2019-04-07T23:00:38.243Z,4.10
2019-04-07T23:03:08.473Z,4.10
2019-04-07T23:05:37.899Z,4.10
2019-04-07T23:08:08.237Z,4.20
2019-04-07T23:10:37.909Z,4.20
2019-04-07T23:13:07.749Z,4.10
2019-04-07T23:15:44.239Z,4.00
2019-04-07T23:18:09.144Z,4.10
2019-04-07T23:20:38.396Z,3.90
2019-04-07T23:23:07.615Z,4.00
2019-04-07T23:25:36.947Z,3.90
2019-04-07T23:28:06.295Z,3.80
2019-04-07T23:30:35.497Z,3.80
2019-04-07T23:33:04.972Z,3.80
2019-04-07T23:35:35.023Z,3.80
2019-04-07T23:38:04.267Z,3.90
2019-04-07T23:40:34.294Z,3.80
2019-04-07T23:43:03.551Z,3.90
2019-04-07T23:45:33.521Z,3.90
2019-04-07T23:48:04.044Z,3.90
2019-04-07T23:50:33.679Z,3.80
2019-04-07T23:53:22.145Z,3.60
2019-04-07T23:55:52.538Z,3.60
2019-04-07T23:58:21.835Z,3.50
